Time;durP1;ratioP1;P1;durP2;ratioP2;P2;SDS_P1;SDS_P2;PMS_P1;PMS_P2;Temp;Humidity;BMP_temperature;BMP_pressure;BME280_temperature;BME280_humidity;BME280_pressure;Samples;Min_cycle;Max_cycle;Signal;HPM_P1;HPM_P2
2024/01/17 00:04:50;;;;;;;46.50;24.90;;;;;;;-2.04;64.03;98427.38;231831;205;138567;-55
2024/01/17 00:09:53;;;;;;;49.90;25.60;;;;;;;-2.16;63.73;98422.08;231713;199;138127;-53
2024/01/17 00:14:56;;;;;;;47.30;25.60;;;;;;;-2.27;63.98;98424.39;231669;199;153562;-53
2024/01/17 00:19:59;;;;;;;44.70;24.50;;;;;;;-2.35;63.77;98413.77;231665;199;138384;-50
2024/01/17 00:25:05;;;;;;;45.90;25.60;;;;;;;-2.43;63.71;98403.50;231727;198;138516;-52
2024/01/17 00:30:08;;;;;;;44.60;23.60;;;;;;;-2.48;63.32;98401.69;231673;198;153879;-57
2024/01/17 00:35:12;;;;;;;48.60;26.30;;;;;;;-2.60;62.49;98391.15;231785;199;139026;-56
2024/01/17 00:40:15;;;;;;;51.80;28.60;;;;;;;-2.74;62.19;98396.48;231703;206;138100;-56
2024/01/17 00:45:19;;;;;;;57.00;29.80;;;;;;;-2.91;61.53;98397.66;231506;199;153784;-55
2024/01/17 00:50:22;;;;;;;69.10;35.00;;;;;;;-3.07;61.46;98401.77;231714;198;139841;-55
2024/01/17 00:55:26;;;;;;;68.50;35.60;;;;;;;-3.18;61.47;98408.38;231680;203;138017;-56
2024/01/17 01:00:29;;;;;;;74.70;36.70;;;;;;;-3.27;60.83;98411.31;231732;198;153035;-57
2024/01/17 01:05:32;;;;;;;78.40;38.50;;;;;;;-3.39;60.65;98417.94;231719;198;137871;-57
2024/01/17 01:10:36;;;;;;;74.10;37.60;;;;;;;-3.52;60.32;98404.95;231796;199;137786;-54
2024/01/17 01:15:39;;;;;;;75.90;39.90;;;;;;;-3.70;60.42;98404.55;231588;199;154117;-55
2024/01/17 01:20:42;;;;;;;71.30;38.40;;;;;;;-3.85;60.39;98402.34;231707;199;138721;-57
2024/01/17 01:25:45;;;;;;;77.80;37.50;;;;;;;-3.95;60.11;98397.46;231807;198;137826;-55
2024/01/17 01:30:48;;;;;;;72.50;35.00;;;;;;;-4.11;59.80;98384.69;231671;198;153261;-56
2024/01/17 01:35:52;;;;;;;67.70;33.70;;;;;;;-4.21;59.75;98385.88;231664;198;138792;-53
2024/01/17 01:40:58;;;;;;;70.10;36.30;;;;;;;-4.34;59.56;98384.30;231813;203;138237;-54
2024/01/17 01:46:04;;;;;;;74.30;35.70;;;;;;;-4.41;59.53;98384.92;231757;198;154633;-56
2024/01/17 01:51:10;;;;;;;68.40;36.50;;;;;;;-4.52;59.43;98385.23;231700;203;141321;-57
2024/01/17 01:56:18;;;;;;;69.00;35.20;;;;;;;-4.59;59.33;98373.73;231712;199;138250;-57
2024/01/17 02:01:22;;;;;;;59.40;31.90;;;;;;;-4.67;59.17;98368.45;231772;198;153063;-53
2024/01/17 02:06:30;;;;;;;56.40;30.90;;;;;;;-4.76;59.08;98372.89;231673;199;138964;-52
2024/01/17 02:11:33;;;;;;;53.70;28.90;;;;;;;-4.89;58.84;98367.84;231724;198;137427;-54
2024/01/17 02:16:38;;;;;;;57.40;30.60;;;;;;;-5.05;58.83;98367.33;231858;198;153749;-56
2024/01/17 02:21:41;;;;;;;62.30;31.30;;;;;;;-5.16;59.08;98363.63;231448;199;139104;-55
2024/01/17 02:26:44;;;;;;;61.30;30.50;;;;;;;-5.24;59.07;98354.04;231312;198;138765;-55
2024/01/17 02:31:48;;;;;;;54.00;27.60;;;;;;;-5.32;58.93;98353.60;231670;198;153098;-54
2024/01/17 02:36:52;;;;;;;47.40;26.60;;;;;;;-5.38;59.01;98351.91;231702;198;138124;-56
2024/01/17 02:41:55;;;;;;;50.70;28.50;;;;;;;-5.43;59.47;98350.92;231692;198;137613;-56
2024/01/17 02:46:58;;;;;;;55.70;28.30;;;;;;;-5.46;59.31;98347.86;231811;198;153011;-57
2024/01/17 02:52:02;;;;;;;54.50;27.70;;;;;;;-5.47;59.36;98340.60;231730;203;138107;-55
2024/01/17 02:57:05;;;;;;;54.70;27.90;;;;;;;-5.53;59.27;98332.88;231777;206;138555;-55
2024/01/17 03:02:09;;;;;;;50.90;27.00;;;;;;;-5.59;59.44;98316.70;231249;203;154434;-53
2024/01/17 03:07:13;;;;;;;52.20;27.50;;;;;;;-5.65;59.36;98307.95;231672;199;138293;-53
2024/01/17 03:12:16;;;;;;;58.40;27.50;;;;;;;-5.68;59.15;98295.53;231763;198;138921;-52
2024/01/17 03:17:19;;;;;;;53.80;27.00;;;;;;;-5.75;59.14;98299.05;231872;202;153569;-54
2024/01/17 03:22:22;;;;;;;50.60;25.60;;;;;;;-5.78;59.03;98299.94;231759;198;139177;-54
2024/01/17 03:27:26;;;;;;;54.60;26.50;;;;;;;-5.86;58.76;98297.24;231686;198;138400;-53
2024/01/17 03:32:29;;;;;;;53.60;25.80;;;;;;;-5.93;58.65;98301.45;231670;198;154973;-54
2024/01/17 03:37:32;;;;;;;52.70;25.90;;;;;;;-5.98;58.61;98301.17;231678;199;138499;-47
2024/01/17 03:42:35;;;;;;;51.70;25.50;;;;;;;-6.05;58.53;98303.82;231666;199;138813;-51
2024/01/17 03:47:38;;;;;;;51.40;25.40;;;;;;;-6.12;58.60;98298.16;231643;198;153713;-49
2024/01/17 03:52:41;;;;;;;49.30;25.00;;;;;;;-6.16;58.36;98288.20;231775;198;138125;-52
2024/01/17 03:57:44;;;;;;;48.10;24.80;;;;;;;-6.21;58.37;98294.79;231641;203;140799;-52
2024/01/17 04:02:48;;;;;;;52.20;24.20;;;;;;;-6.24;58.54;98291.54;231610;198;155167;-54
2024/01/17 04:07:51;;;;;;;48.80;24.50;;;;;;;-6.25;58.56;98290.67;231622;203;139244;-52
2024/01/17 04:12:54;;;;;;;51.70;25.90;;;;;;;-6.25;58.60;98293.79;231665;206;138421;-51
2024/01/17 04:17:57;;;;;;;60.20;28.50;;;;;;;-6.30;58.70;98297.79;231659;199;154150;-49
2024/01/17 04:23:04;;;;;;;53.40;26.90;;;;;;;-6.25;58.56;98291.53;231785;199;138525;-52
2024/01/17 04:28:09;;;;;;;57.90;28.40;;;;;;;-6.14;58.39;98289.22;231633;204;139537;-53
2024/01/17 04:33:13;;;;;;;52.30;26.30;;;;;;;-5.99;57.95;98279.59;231639;206;155253;-54
2024/01/17 04:38:16;;;;;;;53.10;26.10;;;;;;;-5.85;57.12;98272.89;231720;203;138680;-53
2024/01/17 04:43:19;;;;;;;55.70;28.10;;;;;;;-5.79;56.77;98268.86;231715;199;137338;-56
2024/01/17 04:48:22;;;;;;;58.30;28.50;;;;;;;-5.77;56.51;98255.70;231666;199;153986;-56
2024/01/17 04:53:25;;;;;;;52.60;26.80;;;;;;;-5.83;56.24;98253.34;231705;206;138443;-51
2024/01/17 04:58:29;;;;;;;51.60;26.80;;;;;;;-5.85;56.09;98244.56;231579;204;138631;-56
2024/01/17 05:03:32;;;;;;;54.40;28.10;;;;;;;-5.93;55.78;98232.40;231624;202;153947;-57
2024/01/17 05:08:37;;;;;;;56.00;27.90;;;;;;;-6.07;55.74;98230.80;231591;199;137739;-55
2024/01/17 05:13:40;;;;;;;57.90;26.70;;;;;;;-6.22;55.93;98231.30;231672;199;138538;-57
2024/01/17 05:18:43;;;;;;;97.80;50.50;;;;;;;-6.26;57.41;98226.66;231669;199;153948;-57
2024/01/17 05:23:46;;;;;;;191.50;104.10;;;;;;;-6.29;56.54;98223.23;231554;198;138205;-55
2024/01/17 05:28:50;;;;;;;60.60;30.40;;;;;;;-6.31;58.08;98215.48;231792;198;139543;-56
2024/01/17 05:33:53;;;;;;;58.20;28.60;;;;;;;-6.22;56.71;98208.33;231690;206;153393;-57
2024/01/17 05:38:56;;;;;;;53.20;26.40;;;;;;;-6.33;56.27;98203.08;231660;199;138743;-57
2024/01/17 05:44:00;;;;;;;55.80;26.60;;;;;;;-6.52;56.20;98194.41;231743;206;139022;-57
2024/01/17 05:49:03;;;;;;;126.80;65.90;;;;;;;-6.64;56.76;98201.07;231760;206;155965;-57
2024/01/17 05:54:07;;;;;;;60.80;29.90;;;;;;;-6.48;58.84;98186.45;231740;205;138669;-55
2024/01/17 05:59:13;;;;;;;54.80;27.20;;;;;;;-6.32;57.08;98173.55;231773;198;138596;-54
2024/01/17 06:04:16;;;;;;;55.50;27.00;;;;;;;-6.24;56.81;98170.89;231637;199;154485;-54
2024/01/17 06:09:20;;;;;;;63.40;28.70;;;;;;;-6.16;56.53;98165.12;231620;198;139728;-55
2024/01/17 06:14:23;;;;;;;53.50;27.70;;;;;;;-6.19;56.52;98155.66;231723;203;139616;-54
2024/01/17 06:19:26;;;;;;;170.70;90.10;;;;;;;-6.26;57.89;98148.31;231658;206;153285;-54
2024/01/17 06:24:29;;;;;;;56.80;26.60;;;;;;;-6.16;58.82;98147.34;231686;197;138185;-56
2024/01/17 06:29:34;;;;;;;57.40;26.30;;;;;;;-6.25;57.06;98148.64;231770;199;138494;-54
2024/01/17 06:34:39;;;;;;;36.30;20.00;;;;;;;-6.30;57.36;98153.34;231760;199;154631;-55
2024/01/17 06:39:43;;;;;;;53.80;23.30;;;;;;;-6.33;57.47;98152.84;231619;202;139162;-53
2024/01/17 06:44:46;;;;;;;49.30;24.80;;;;;;;-6.38;57.59;98148.05;231770;202;138364;-54
2024/01/17 06:49:50;;;;;;;47.50;22.90;;;;;;;-6.38;57.77;98144.61;231667;200;153014;-56
2024/01/17 06:54:54;;;;;;;49.30;23.80;;;;;;;-6.42;57.97;98140.86;231797;205;142216;-52
2024/01/17 06:59:57;;;;;;;48.60;24.50;;;;;;;-6.42;58.42;98129.30;231733;198;138207;-50
2024/01/17 07:05:01;;;;;;;47.20;25.20;;;;;;;-6.39;58.56;98121.86;231831;197;153137;-56
2024/01/17 07:10:05;;;;;;;47.10;23.40;;;;;;;-6.31;58.32;98110.38;231686;198;137982;-56
2024/01/17 07:15:09;;;;;;;46.70;24.50;;;;;;;-6.27;57.93;98102.06;231758;198;138452;-54
2024/01/17 07:20:12;;;;;;;53.00;24.00;;;;;;;-6.27;57.72;98099.30;231692;198;154436;-54
2024/01/17 07:25:16;;;;;;;44.10;22.50;;;;;;;-6.21;58.28;98092.33;231671;199;138666;-56
2024/01/17 07:30:19;;;;;;;43.90;21.00;;;;;;;-6.02;59.25;98086.77;231725;197;139172;-56
2024/01/17 07:35:23;;;;;;;41.40;21.10;;;;;;;-5.79;59.42;98076.79;231755;202;153684;-56
2024/01/17 07:40:26;;;;;;;44.10;21.60;;;;;;;-5.49;59.64;98065.02;231630;205;138964;-54
2024/01/17 07:45:29;;;;;;;50.60;22.90;;;;;;;-5.24;59.56;98059.80;231599;201;138566;-54
2024/01/17 07:50:32;;;;;;;41.10;21.50;;;;;;;-5.13;59.83;98053.77;231651;198;154333;-53
2024/01/17 07:55:37;;;;;;;42.60;20.50;;;;;;;-5.01;60.46;98045.27;231611;199;140304;-52
2024/01/17 08:00:40;;;;;;;38.40;18.70;;;;;;;-4.85;60.81;98037.41;231675;198;137240;-53
2024/01/17 08:05:43;;;;;;;31.50;18.10;;;;;;;-4.68;61.48;98025.33;231713;198;153388;-52
2024/01/17 08:10:46;;;;;;;40.10;18.10;;;;;;;-4.46;61.82;98017.33;231786;206;140781;-52
2024/01/17 08:15:50;;;;;;;34.80;18.00;;;;;;;-4.22;61.97;98015.83;231716;199;139441;-52
2024/01/17 08:20:53;;;;;;;33.40;17.80;;;;;;;-3.98;62.07;98007.21;231708;203;152959;-52
2024/01/17 08:25:56;;;;;;;33.50;18.40;;;;;;;-3.78;61.94;97993.80;231608;206;138632;-54
2024/01/17 08:30:59;;;;;;;33.20;19.20;;;;;;;-3.57;61.52;97984.84;231707;205;137973;-52
2024/01/17 08:36:03;;;;;;;43.20;21.00;;;;;;;-3.39;61.22;97978.54;231662;198;153434;-54
2024/01/17 08:41:07;;;;;;;44.50;21.70;;;;;;;-3.22;60.90;97968.59;231835;198;139402;-52
2024/01/17 08:46:13;;;;;;;40.50;20.90;;;;;;;-3.08;60.61;97957.85;231616;202;139582;-51
2024/01/17 08:51:17;;;;;;;43.40;21.00;;;;;;;-2.91;60.51;97950.31;231689;199;153042;-54
2024/01/17 08:56:20;;;;;;;46.00;23.10;;;;;;;-2.72;60.40;97945.48;231652;205;139411;-53
2024/01/17 09:01:24;;;;;;;45.90;24.30;;;;;;;-2.61;60.35;97935.63;231835;206;138467;-52
2024/01/17 09:06:28;;;;;;;47.20;23.00;;;;;;;-2.44;60.36;97925.45;231670;198;154334;-57
2024/01/17 09:11:32;;;;;;;45.70;24.20;;;;;;;-2.30;60.30;97913.60;231803;198;137671;-55
2024/01/17 09:16:35;;;;;;;41.20;22.50;;;;;;;-2.13;60.42;97910.47;231842;206;137742;-53
2024/01/17 09:21:39;;;;;;;45.80;23.60;;;;;;;-1.93;60.48;97905.20;231642;206;153067;-54
2024/01/17 09:26:43;;;;;;;44.80;22.50;;;;;;;-1.75;60.33;97894.38;231698;198;138105;-53
2024/01/17 09:31:47;;;;;;;46.50;21.40;;;;;;;-1.57;60.44;97884.61;231626;203;137656;-54
2024/01/17 09:36:52;;;;;;;242.70;124.30;;;;;;;-1.35;60.59;97870.50;231675;199;153222;-56
2024/01/17 09:41:58;;;;;;;69.80;32.60;;;;;;;-1.08;61.10;97855.65;231434;198;138528;-55
2024/01/17 09:47:03;;;;;;;40.00;20.80;;;;;;;-0.85;60.21;97846.66;231756;198;137860;-55
2024/01/17 09:52:10;;;;;;;36.80;18.90;;;;;;;-0.64;59.84;97827.64;231569;199;153338;-51
2024/01/17 09:57:22;;;;;;;35.10;19.50;;;;;;;-0.42;59.66;97809.23;231641;199;137520;-54
2024/01/17 10:02:27;;;;;;;33.40;18.40;;;;;;;-0.17;59.18;97800.42;231689;198;139176;-53
2024/01/17 10:07:31;;;;;;;31.30;17.70;;;;;;;0.08;58.89;97780.59;231637;198;153855;-52
2024/01/17 10:12:34;;;;;;;31.90;17.80;;;;;;;0.27;58.30;97772.34;231603;206;138124;-51
2024/01/17 10:17:37;;;;;;;35.90;17.90;;;;;;;0.43;57.95;97758.22;231624;206;138486;-52
2024/01/17 10:22:41;;;;;;;38.10;18.60;;;;;;;0.61;57.48;97747.34;231665;203;153319;-51
2024/01/17 10:27:48;;;;;;;30.00;18.10;;;;;;;0.79;57.26;97735.04;231636;198;137340;-53
2024/01/17 10:32:51;;;;;;;32.90;18.10;;;;;;;0.98;56.94;97728.45;231602;203;138239;-52
2024/01/17 10:37:55;;;;;;;32.10;17.80;;;;;;;1.14;56.51;97712.17;231555;199;154205;-53
2024/01/17 10:43:13;;;;;;;32.40;18.10;;;;;;;1.32;56.25;97697.54;231609;198;138768;-53
2024/01/17 10:48:16;;;;;;;31.40;18.30;;;;;;;1.58;56.10;97683.55;231627;198;138802;-53
2024/01/17 10:53:20;;;;;;;29.50;17.60;;;;;;;1.74;55.63;97671.79;231734;199;153263;-52
2024/01/17 10:58:23;;;;;;;30.90;17.80;;;;;;;1.88;55.31;97661.29;231556;198;137893;-53
2024/01/17 11:03:29;;;;;;;29.40;16.90;;;;;;;1.96;54.79;97647.28;231624;199;138015;-54
2024/01/17 11:08:33;;;;;;;31.70;18.10;;;;;;;1.98;54.32;97626.91;231534;199;153584;-57
2024/01/17 11:13:37;;;;;;;35.10;19.50;;;;;;;1.99;54.48;97614.61;231586;198;139355;-58
2024/01/17 11:18:42;;;;;;;33.50;18.70;;;;;;;2.01;54.57;97600.33;231715;203;138031;-53
2024/01/17 11:24:18;;;;;;;38.60;19.70;;;;;;;2.02;54.44;97584.52;231629;203;153340;-57
2024/01/17 11:29:43;;;;;;;35.00;20.20;;;;;;;2.00;54.45;97575.75;231679;205;138413;-59
2024/01/17 11:34:49;;;;;;;36.90;19.80;;;;;;;1.99;54.45;97573.83;231750;198;138882;-58
2024/01/17 11:40:02;;;;;;;39.70;20.20;;;;;;;1.96;54.45;97560.02;231669;205;154135;-57
2024/01/17 11:45:06;;;;;;;40.70;21.10;;;;;;;1.91;54.37;97551.36;231597;199;138214;-57
2024/01/17 11:50:20;;;;;;;43.30;21.30;;;;;;;1.83;54.53;97544.05;231726;198;139649;-58
2024/01/17 11:55:32;;;;;;;40.70;21.80;;;;;;;1.79;54.83;97524.71;231612;199;153989;-57
2024/01/17 12:00:35;;;;;;;45.40;23.10;;;;;;;1.77;54.90;97513.59;231638;197;141321;-57
2024/01/17 12:05:39;;;;;;;46.40;22.10;;;;;;;1.77;55.23;97503.83;231657;199;137838;-59
2024/01/17 12:10:42;;;;;;;661.00;442.50;;;;;;;1.81;55.47;97487.52;231736;198;153157;-59
2024/01/17 12:15:48;;;;;;;59.80;33.60;;;;;;;1.98;55.79;97477.00;231570;206;142096;-58
2024/01/17 12:20:54;;;;;;;34.00;19.10;;;;;;;2.04;55.12;97469.36;231652;199;138451;-58
2024/01/17 12:25:59;;;;;;;33.00;19.10;;;;;;;2.16;55.20;97457.51;231683;198;153762;-58
2024/01/17 12:31:05;;;;;;;36.10;18.90;;;;;;;2.28;55.10;97447.94;231603;198;137647;-58
2024/01/17 12:36:09;;;;;;;32.10;18.10;;;;;;;2.38;55.18;97436.05;231712;198;138166;-57
2024/01/17 12:41:12;;;;;;;35.10;19.60;;;;;;;2.47;55.29;97425.02;231711;205;153078;-56
2024/01/17 12:46:15;;;;;;;33.60;18.70;;;;;;;2.55;55.29;97412.17;231627;198;139328;-62
2024/01/17 12:51:19;;;;;;;39.70;20.20;;;;;;;2.60;55.16;97408.75;231711;199;138949;-58
2024/01/17 12:56:22;;;;;;;33.50;19.20;;;;;;;2.69;55.05;97397.52;231708;199;153444;-57
2024/01/17 13:01:30;;;;;;;39.30;19.70;;;;;;;2.80;55.03;97385.67;231751;198;137209;-59
2024/01/17 13:06:44;;;;;;;33.70;18.60;;;;;;;2.91;55.15;97365.09;231693;199;138152;-59
2024/01/17 13:11:53;;;;;;;33.70;19.20;;;;;;;3.03;54.90;97349.67;231474;203;155042;-57
2024/01/17 13:16:57;;;;;;;34.70;19.30;;;;;;;3.13;54.92;97336.68;231853;198;138100;-57
2024/01/17 13:22:00;;;;;;;27.50;17.20;;;;;;;3.20;54.70;97335.05;231594;199;137750;-53
2024/01/17 13:27:03;;;;;;;34.60;19.10;;;;;;;3.22;54.71;97324.73;231771;199;154335;-55
2024/01/17 13:32:07;;;;;;;34.10;18.40;;;;;;;3.25;54.86;97310.02;231663;203;137943;-57
2024/01/17 13:37:11;;;;;;;37.50;18.00;;;;;;;3.29;54.85;97300.46;231817;199;137707;-56
2024/01/17 13:42:14;;;;;;;35.40;17.60;;;;;;;3.30;54.82;97290.63;231703;199;153353;-58
2024/01/17 13:47:17;;;;;;;31.90;18.20;;;;;;;3.32;54.84;97287.29;231427;206;138688;-56
2024/01/17 13:52:21;;;;;;;32.90;17.50;;;;;;;3.31;55.15;97279.14;231513;206;138803;-57
2024/01/17 13:57:24;;;;;;;28.40;17.30;;;;;;;3.29;55.29;97276.48;231702;203;154613;-58
2024/01/17 14:02:31;;;;;;;31.80;17.00;;;;;;;3.28;55.45;97273.23;231686;199;138836;-56
2024/01/17 14:07:34;;;;;;;28.60;16.10;;;;;;;3.25;55.49;97260.06;231850;203;138889;-57
2024/01/17 14:12:39;;;;;;;26.50;15.80;;;;;;;3.21;55.66;97252.10;231661;203;154152;-57
2024/01/17 14:17:43;;;;;;;28.30;14.70;;;;;;;3.16;55.95;97245.86;231591;199;139609;-57
2024/01/17 14:22:47;;;;;;;26.80;14.80;;;;;;;3.12;56.14;97237.92;231818;206;141800;-57
2024/01/17 14:27:50;;;;;;;22.50;13.90;;;;;;;3.14;56.31;97230.42;231699;200;153278;-57
2024/01/17 14:32:53;;;;;;;24.40;13.20;;;;;;;3.15;56.41;97229.66;231585;206;138465;-57
2024/01/17 14:37:56;;;;;;;21.40;12.70;;;;;;;3.18;56.48;97222.33;231688;199;138353;-55
2024/01/17 14:43:00;;;;;;;22.00;12.20;;;;;;;3.18;56.45;97207.23;231642;198;153595;-57
2024/01/17 14:48:03;;;;;;;21.60;11.50;;;;;;;3.21;56.43;97206.51;231618;203;138244;-55
2024/01/17 14:53:09;;;;;;;19.80;12.20;;;;;;;3.19;56.33;97204.34;231852;204;138346;-57
2024/01/17 14:58:13;;;;;;;21.60;11.80;;;;;;;3.25;56.35;97197.00;231468;198;153729;-56
2024/01/17 15:03:16;;;;;;;21.30;10.70;;;;;;;3.33;56.43;97186.33;231722;199;138039;-55
2024/01/17 15:08:19;;;;;;;16.20;9.50;;;;;;;3.40;56.29;97169.93;231747;202;140289;-57
2024/01/17 15:13:23;;;;;;;14.10;7.90;;;;;;;3.46;56.38;97155.86;231690;203;153885;-57
2024/01/17 15:18:26;;;;;;;15.20;7.50;;;;;;;3.52;56.03;97142.30;231614;199;137922;-56
2024/01/17 15:23:30;;;;;;;11.10;6.70;;;;;;;3.55;55.80;97137.73;231759;199;137879;-56
2024/01/17 15:28:33;;;;;;;12.90;6.80;;;;;;;3.58;55.78;97123.19;231585;199;153222;-57
2024/01/17 15:33:38;;;;;;;17.60;8.00;;;;;;;3.57;55.78;97120.63;231593;202;137986;-55
2024/01/17 15:38:44;;;;;;;16.30;8.30;;;;;;;3.53;55.83;97112.48;231752;199;137536;-56
2024/01/17 15:43:47;;;;;;;18.10;8.20;;;;;;;3.49;55.88;97110.95;231466;198;153982;-55
2024/01/17 15:48:50;;;;;;;14.50;7.80;;;;;;;3.52;56.28;97097.95;231551;206;141535;-58
2024/01/17 15:53:54;;;;;;;20.70;8.40;;;;;;;3.54;56.15;97084.66;231661;199;137609;-57
2024/01/17 15:58:58;;;;;;;21.00;10.00;;;;;;;3.51;56.53;97076.46;231574;198;153320;-55
2024/01/17 16:04:02;;;;;;;15.50;8.40;;;;;;;3.49;56.73;97072.95;231433;202;137676;-55
2024/01/17 16:09:11;;;;;;;14.70;8.30;;;;;;;3.52;57.02;97060.14;231661;198;137784;-55
2024/01/17 16:14:14;;;;;;;15.70;8.80;;;;;;;3.54;56.92;97052.42;231584;198;153169;-55
2024/01/17 16:19:17;;;;;;;16.50;9.00;;;;;;;3.55;56.71;97037.61;231563;199;138282;-55
2024/01/17 16:24:21;;;;;;;19.10;8.70;;;;;;;3.57;56.76;97046.48;231634;202;137484;-54
2024/01/17 16:29:24;;;;;;;14.20;8.40;;;;;;;3.66;56.84;97043.29;231643;199;153634;-52
2024/01/17 16:34:28;;;;;;;15.20;8.50;;;;;;;3.70;56.72;97034.23;231683;199;138370;-54
2024/01/17 16:39:35;;;;;;;14.70;8.20;;;;;;;3.72;56.73;97033.58;231594;200;138001;-55
2024/01/17 16:44:38;;;;;;;13.70;8.60;;;;;;;3.68;56.96;97031.38;231462;199;153467;-57
2024/01/17 16:49:42;;;;;;;15.80;9.50;;;;;;;3.63;57.01;97025.08;231567;199;138034;-56
2024/01/17 16:54:48;;;;;;;16.60;9.80;;;;;;;3.59;57.36;97032.49;231614;203;138465;-56
2024/01/17 16:59:51;;;;;;;15.00;9.30;;;;;;;3.52;57.76;97032.96;231663;200;153958;-56
2024/01/17 17:04:55;;;;;;;17.90;10.30;;;;;;;3.47;57.99;97024.88;231657;206;138270;-55
2024/01/17 17:09:58;;;;;;;18.40;10.60;;;;;;;3.47;57.96;97018.91;231494;203;138428;-55
2024/01/17 17:15:03;;;;;;;19.40;10.30;;;;;;;3.40;58.32;97020.23;231529;199;155262;-56
2024/01/17 17:20:10;;;;;;;16.70;9.70;;;;;;;3.37;58.44;97017.84;231580;199;141321;-56
2024/01/17 17:25:13;;;;;;;19.80;11.50;;;;;;;3.36;58.81;97011.92;231658;199;138467;-55
2024/01/17 17:30:17;;;;;;;17.10;10.20;;;;;;;3.38;58.96;96998.64;231598;199;154441;-55
2024/01/17 17:35:20;;;;;;;17.70;10.60;;;;;;;3.36;59.01;96990.37;231674;199;137765;-57
2024/01/17 17:40:23;;;;;;;18.40;11.00;;;;;;;3.32;59.21;96982.41;231648;199;139978;-61
2024/01/17 17:45:26;;;;;;;18.80;11.10;;;;;;;3.26;59.38;96974.70;231536;203;153424;-57
2024/01/17 17:50:30;;;;;;;20.50;11.20;;;;;;;3.22;59.50;96954.64;231281;199;139148;-66
2024/01/17 17:55:33;;;;;;;19.40;11.70;;;;;;;3.27;59.51;96945.41;231773;205;138075;-57
2024/01/17 18:00:36;;;;;;;20.80;12.40;;;;;;;3.33;59.53;96930.61;231906;198;156406;-60
2024/01/17 18:05:41;;;;;;;22.20;12.90;;;;;;;3.42;59.39;96917.09;231827;202;139243;-56
2024/01/17 18:10:44;;;;;;;23.40;13.10;;;;;;;3.47;59.48;96897.78;231707;199;142554;-55
2024/01/17 18:15:48;;;;;;;23.70;13.80;;;;;;;3.45;59.44;96876.17;231552;198;153296;-55
2024/01/17 18:20:52;;;;;;;21.80;13.70;;;;;;;3.41;59.69;96872.96;231722;198;138535;-55
2024/01/17 18:25:55;;;;;;;25.20;13.80;;;;;;;3.39;59.81;96871.69;231493;202;139753;-57
2024/01/17 18:30:58;;;;;;;24.10;14.10;;;;;;;3.35;59.70;96868.44;231608;203;153351;-57
2024/01/17 18:36:03;;;;;;;24.10;13.80;;;;;;;3.29;60.19;96853.98;231752;198;138484;-58
2024/01/17 18:41:07;;;;;;;23.80;13.90;;;;;;;3.24;60.14;96833.42;231764;198;137838;-54
2024/01/17 18:46:12;;;;;;;27.40;14.60;;;;;;;3.21;60.27;96830.54;231456;198;154741;-57
2024/01/17 18:51:15;;;;;;;25.30;14.90;;;;;;;3.18;60.55;96828.40;231564;199;138328;-55
2024/01/17 18:56:19;;;;;;;26.90;15.70;;;;;;;3.16;60.82;96827.88;231572;206;139182;-54
2024/01/17 19:01:23;;;;;;;23.20;14.30;;;;;;;3.15;60.84;96825.15;231609;198;153549;-56
2024/01/17 19:06:27;;;;;;;25.70;15.20;;;;;;;3.16;61.28;96822.10;231366;199;139092;-56
2024/01/17 19:11:31;;;;;;;26.20;16.20;;;;;;;3.13;61.61;96828.64;231669;203;138669;-54
2024/01/17 19:16:34;;;;;;;26.50;15.70;;;;;;;3.14;61.80;96821.01;231564;199;153290;-55
2024/01/17 19:21:38;;;;;;;26.10;14.60;;;;;;;3.16;61.94;96804.04;231458;202;138448;-55
2024/01/17 19:26:45;;;;;;;36.80;20.40;;;;;;;3.21;62.24;96787.20;231594;198;138211;-56
2024/01/17 19:31:53;;;;;;;27.30;15.10;;;;;;;3.31;62.48;96764.48;231577;199;153385;-55
2024/01/17 19:36:56;;;;;;;31.90;16.90;;;;;;;3.45;62.62;96763.84;231549;199;138124;-56
2024/01/17 19:42:02;;;;;;;26.10;15.30;;;;;;;3.58;62.64;96753.48;231689;198;138644;-53
2024/01/17 19:47:06;;;;;;;27.90;15.60;;;;;;;3.64;62.57;96739.17;231683;205;154917;-56
2024/01/17 19:52:10;;;;;;;27.90;15.90;;;;;;;3.67;62.68;96720.73;231582;198;137779;-56
2024/01/17 19:57:13;;;;;;;28.30;16.50;;;;;;;3.71;62.96;96717.81;231601;198;138460;-54
2024/01/17 20:02:17;;;;;;;30.40;15.50;;;;;;;3.77;62.85;96708.07;231690;198;153152;-56
2024/01/17 20:07:20;;;;;;;23.50;14.60;;;;;;;3.76;62.95;96696.73;231659;205;139910;-55
2024/01/17 20:12:23;;;;;;;24.30;13.70;;;;;;;3.78;63.07;96689.77;231784;197;137906;-56
2024/01/17 20:17:27;;;;;;;26.80;13.80;;;;;;;3.76;63.13;96675.67;231863;198;153378;-56
2024/01/17 20:22:30;;;;;;;24.50;14.00;;;;;;;3.75;63.08;96656.86;231688;198;138512;-56
2024/01/17 20:27:33;;;;;;;90.90;55.30;;;;;;;3.79;64.84;96648.10;231658;198;137906;-56
2024/01/17 20:32:36;;;;;;;33.70;17.20;;;;;;;4.12;65.15;96641.33;231573;198;154004;-54
2024/01/17 20:37:39;;;;;;;22.60;14.20;;;;;;;4.05;62.98;96636.73;231665;198;138632;-57
2024/01/17 20:42:42;;;;;;;23.80;12.50;;;;;;;3.92;62.89;96633.50;231725;204;138987;-56
2024/01/17 20:47:45;;;;;;;21.80;12.80;;;;;;;3.84;63.00;96631.47;231680;198;155478;-55
2024/01/17 20:52:49;;;;;;;20.60;12.60;;;;;;;3.77;63.38;96606.87;231528;205;138162;-55
2024/01/17 20:57:52;;;;;;;20.90;11.60;;;;;;;3.78;63.83;96586.31;231663;198;138095;-54
2024/01/17 21:02:58;;;;;;;22.80;12.80;;;;;;;3.85;63.85;96580.14;231570;199;154005;-56
2024/01/17 21:08:03;;;;;;;20.50;11.30;;;;;;;3.88;63.87;96574.20;231546;198;138399;-54
2024/01/17 21:13:07;;;;;;;19.30;10.40;;;;;;;3.95;64.10;96568.21;231668;198;137451;-53
2024/01/17 21:18:11;;;;;;;16.90;9.70;;;;;;;4.05;64.07;96571.83;231597;205;153849;-56
2024/01/17 21:23:19;;;;;;;17.30;10.10;;;;;;;4.05;63.96;96552.88;231781;205;137358;-55
2024/01/17 21:28:22;;;;;;;17.00;9.50;;;;;;;4.08;64.04;96540.63;230970;202;138711;-56
2024/01/17 21:33:25;;;;;;;20.60;10.10;;;;;;;4.08;63.96;96537.62;231476;198;154893;-55
2024/01/17 21:38:29;;;;;;;16.00;9.90;;;;;;;4.08;64.03;96525.64;231619;198;139769;-54
2024/01/17 21:43:32;;;;;;;330.80;230.80;;;;;;;4.38;70.56;96520.33;231701;202;138596;-55
2024/01/17 21:48:37;;;;;;;23.30;12.90;;;;;;;5.32;66.01;96498.96;231462;198;153369;-56
2024/01/17 21:53:41;;;;;;;16.60;8.70;;;;;;;5.17;63.44;96508.65;231484;198;140138;-55
2024/01/17 21:58:45;;;;;;;15.50;9.40;;;;;;;4.99;62.95;96494.28;231820;205;138844;-56
2024/01/17 22:03:49;;;;;;;14.80;9.70;;;;;;;4.82;62.73;96476.65;231794;198;154059;-55
2024/01/17 22:08:52;;;;;;;18.30;10.10;;;;;;;4.60;62.61;96472.24;231788;197;137914;-53
2024/01/17 22:14:01;;;;;;;15.90;9.60;;;;;;;4.39;62.66;96465.84;231618;198;142812;-54
2024/01/17 22:19:07;;;;;;;19.00;10.30;;;;;;;4.17;62.74;96459.66;231656;198;153463;-53
2024/01/17 22:24:10;;;;;;;16.00;9.80;;;;;;;3.95;63.05;96460.50;231344;197;139049;-57
2024/01/17 22:29:14;;;;;;;15.40;9.30;;;;;;;3.76;63.50;96454.91;231897;198;137717;-55
2024/01/17 22:34:17;;;;;;;604.20;363.80;;;;;;;3.55;63.99;96438.83;231753;205;154646;-56
2024/01/17 22:39:21;;;;;;;24.70;13.40;;;;;;;3.52;64.60;96429.90;231718;205;138207;-54
2024/01/17 22:44:25;;;;;;;16.00;9.90;;;;;;;3.40;64.06;96417.91;231829;205;138543;-56
2024/01/17 22:49:28;;;;;;;19.30;9.90;;;;;;;3.25;64.40;96391.17;231773;198;153927;-56
2024/01/17 22:54:31;;;;;;;16.50;9.90;;;;;;;3.15;64.91;96390.31;231792;197;138335;-56
2024/01/17 22:59:35;;;;;;;214.10;133.50;;;;;;;3.17;68.22;96388.40;231965;201;140007;-56
2024/01/17 23:04:38;;;;;;;29.70;19.00;;;;;;;3.65;67.23;96387.79;231980;205;154058;-57
2024/01/17 23:09:41;;;;;;;113.90;67.80;;;;;;;3.74;65.81;96392.50;231841;197;138196;-56
2024/01/17 23:14:44;;;;;;;20.20;13.10;;;;;;;3.86;67.47;96379.83;231772;198;137500;-57